Time;durP1;ratioP1;P1;durP2;ratioP2;P2;SDS_P1;SDS_P2;PMS_P1;PMS_P2;Temp;Humidity;BMP_temperature;BMP_pressure;BME280_temperature;BME280_humidity;BME280_pressure;Samples;Min_cycle;Max_cycle;Signal;HPM_P1;HPM_P2
2022/12/13 00:00:44;;;;;;;61.95;27.45;;;;;;;-4.53;100.00;100045.53;4998794;28;20505;-71
2022/12/13 00:03:11;;;;;;;63.38;27.05;;;;;;;-4.52;100.00;100055.00;4997966;28;20041;-71
2022/12/13 00:05:44;;;;;;;64.28;27.05;;;;;;;-4.52;100.00;100055.88;4997364;28;20068;-72
2022/12/13 00:08:10;;;;;;;66.45;28.15;;;;;;;-4.50;100.00;100054.19;5003444;28;20064;-71
2022/12/13 00:10:37;;;;;;;68.03;28.08;;;;;;;-4.54;100.00;100047.25;5003422;28;20057;-72
2022/12/13 00:13:04;;;;;;;64.90;27.92;;;;;;;-4.60;100.00;100044.63;5002511;28;20787;-71
2022/12/13 00:15:30;;;;;;;60.50;26.75;;;;;;;-4.63;100.00;100045.47;5000248;28;20506;-69
2022/12/13 00:17:57;;;;;;;63.55;27.52;;;;;;;-4.67;100.00;100048.88;4994571;28;20514;-72
2022/12/13 00:20:23;;;;;;;64.18;28.58;;;;;;;-4.70;100.00;100040.22;4997212;28;20050;-69
2022/12/13 00:22:51;;;;;;;61.88;27.42;;;;;;;-4.65;100.00;100047.16;4990490;28;20049;-70
2022/12/13 00:25:20;;;;;;;64.70;27.55;;;;;;;-4.68;100.00;100048.84;5008194;28;20135;-70
2022/12/13 00:27:46;;;;;;;62.20;26.50;;;;;;;-4.71;100.00;100049.69;5007103;28;20133;-71
2022/12/13 00:30:13;;;;;;;64.78;28.35;;;;;;;-4.77;100.00;100052.22;5003986;28;20069;-70
2022/12/13 00:32:39;;;;;;;67.05;28.77;;;;;;;-4.83;100.00;100047.00;4997394;28;20056;-72
2022/12/13 00:35:06;;;;;;;66.10;28.65;;;;;;;-4.82;100.00;100046.16;4998969;28;20415;-71
2022/12/13 00:37:32;;;;;;;62.47;27.05;;;;;;;-4.82;100.00;100051.31;5004264;28;20068;-71
2022/12/13 00:39:59;;;;;;;62.30;27.42;;;;;;;-4.80;100.00;100048.75;5007260;28;20050;-71
2022/12/13 00:42:26;;;;;;;62.47;27.40;;;;;;;-5.01;100.00;100015.84;5000015;28;20057;-71
2022/12/13 00:44:52;;;;;;;61.20;26.52;;;;;;;-5.06;100.00;100013.22;5008958;28;20551;-70
2022/12/13 00:47:21;;;;;;;64.13;27.77;;;;;;;-4.95;100.00;100033.97;5005591;28;20125;-72
2022/12/13 00:49:47;;;;;;;65.00;27.85;;;;;;;-5.09;100.00;100010.63;5004844;28;20053;-70
2022/12/13 00:52:14;;;;;;;61.53;26.98;;;;;;;-5.12;100.00;100017.47;4994452;28;20049;-71
2022/12/13 00:54:40;;;;;;;71.00;29.48;;;;;;;-5.04;100.00;100039.06;5003456;28;20661;-71
2022/12/13 00:57:07;;;;;;;65.22;26.70;;;;;;;-5.14;100.00;100032.06;5004942;28;20034;-71
2022/12/13 00:59:33;;;;;;;65.15;28.38;;;;;;;-5.13;100.00;100041.53;5007289;28;20117;-70
2022/12/13 01:02:02;;;;;;;65.60;28.00;;;;;;;-5.28;100.00;100033.63;4997280;28;20043;-69
2022/12/13 01:04:28;;;;;;;65.07;27.95;;;;;;;-5.24;100.00;100044.00;5004342;28;20058;-70
2022/12/13 01:06:55;;;;;;;68.25;28.92;;;;;;;-5.22;100.00;100046.63;4997376;28;20038;-71
2022/12/13 01:09:28;;;;;;;66.53;27.25;;;;;;;-5.26;100.00;100034.53;5001055;28;20061;-69
2022/12/13 01:11:57;;;;;;;64.22;26.67;;;;;;;-5.18;100.00;100038.91;4997208;28;20041;-68
2022/12/13 01:14:24;;;;;;;67.32;28.75;;;;;;;-5.15;100.00;100033.78;5003054;28;20583;-70
2022/12/13 01:16:54;;;;;;;65.85;27.33;;;;;;;-5.19;100.00;100049.25;5000348;28;20664;-69
2022/12/13 01:19:22;;;;;;;54.97;25.02;;;;;;;-5.27;100.00;100045.69;5001705;28;20211;-71
2022/12/13 01:22:03;;;;;;;59.83;25.92;;;;;;;-5.33;100.00;100039.59;4996935;28;20789;-69
2022/12/13 01:24:31;;;;;;;68.72;27.15;;;;;;;-5.25;100.00;100044.88;5003031;28;20057;-69
2022/12/13 01:26:57;;;;;;;69.10;27.70;;;;;;;-5.32;100.00;100027.56;5002682;28;20060;-69
2022/12/13 01:29:26;;;;;;;66.00;28.20;;;;;;;-5.37;100.00;100031.84;5001228;28;20058;-68
2022/12/13 01:31:53;;;;;;;64.45;26.20;;;;;;;-5.37;100.00;100039.56;4994453;28;20042;-70
2022/12/13 01:34:21;;;;;;;62.75;27.05;;;;;;;-5.38;100.00;100037.84;5002005;28;20049;-69
2022/12/13 01:36:53;;;;;;;69.35;27.00;;;;;;;-5.46;100.00;100040.31;5000710;28;20125;-70
2022/12/13 01:39:25;;;;;;;68.85;27.02;;;;;;;-5.54;100.00;100044.53;5005321;28;20064;-72
2022/12/13 01:42:02;;;;;;;74.70;28.45;;;;;;;-5.59;100.00;100046.19;4994295;28;20082;-70
2022/12/13 01:45:01;;;;;;;68.10;28.23;;;;;;;-5.65;100.00;100043.50;5001988;28;20121;-69
2022/12/13 01:47:50;;;;;;;68.32;26.73;;;;;;;-5.92;100.00;99999.38;5005564;28;20529;-70
2022/12/13 01:50:22;;;;;;;69.93;26.73;;;;;;;-5.77;100.00;100010.72;5006277;28;20079;-70
2022/12/13 01:52:50;;;;;;;66.55;27.85;;;;;;;-5.60;100.00;100039.28;4990904;28;20050;-71
2022/12/13 01:55:19;;;;;;;61.88;26.60;;;;;;;-5.64;100.00;100032.34;5007752;28;20057;-69
2022/12/13 01:57:48;;;;;;;68.43;27.08;;;;;;;-5.67;100.00;100038.34;5001952;28;20049;-70
2022/12/13 02:00:16;;;;;;;66.32;26.58;;;;;;;-5.72;100.00;100032.28;5002434;28;20117;-69
2022/12/13 02:02:43;;;;;;;67.68;27.40;;;;;;;-5.66;100.00;100036.63;4990655;28;20042;-69
2022/12/13 02:05:22;;;;;;;64.00;27.42;;;;;;;-5.63;100.00;100041.81;5003162;28;20050;-69
2022/12/13 02:07:49;;;;;;;68.95;26.52;;;;;;;-5.70;100.00;100027.13;5000355;28;20050;-71
2022/12/13 02:10:16;;;;;;;68.32;27.05;;;;;;;-5.70;100.00;100038.31;5000804;28;20045;-71
2022/12/13 02:12:43;;;;;;;61.28;26.80;;;;;;;-5.72;100.00;100037.44;4992961;28;20058;-70
2022/12/13 02:15:13;;;;;;;63.38;25.60;;;;;;;-5.76;100.00;100029.63;5005484;28;20050;-70
2022/12/13 02:17:55;;;;;;;71.05;27.13;;;;;;;-5.72;100.00;100028.81;5003714;28;20049;-69
2022/12/13 02:20:49;;;;;;;64.25;25.88;;;;;;;-5.74;100.00;100030.53;4998397;28;20056;-68
2022/12/13 02:23:27;;;;;;;60.53;24.45;;;;;;;-5.92;100.00;99996.78;4994027;28;20050;-69
2022/12/13 02:26:31;;;;;;;61.95;26.10;;;;;;;-5.77;100.00;100027.91;5006143;28;20046;-69
2022/12/13 02:29:32;;;;;;;67.00;25.95;;;;;;;-5.80;100.00;100027.84;5005408;28;20486;-69
2022/12/13 02:32:17;;;;;;;67.47;25.85;;;;;;;-5.83;100.00;100017.53;4996871;28;20042;-69
2022/12/13 02:34:59;;;;;;;70.13;25.23;;;;;;;-5.82;100.00;100029.53;5001895;28;20038;-69
2022/12/13 02:37:36;;;;;;;62.60;25.08;;;;;;;-6.04;100.00;99994.94;4999719;28;20046;-70
2022/12/13 02:40:29;;;;;;;64.85;25.25;;;;;;;-5.87;100.00;100028.63;5008629;28;20057;-68
2022/12/13 02:42:58;;;;;;;58.92;24.25;;;;;;;-5.89;100.00;100022.63;4989611;28;20049;-71
2022/12/13 02:45:43;;;;;;;65.85;23.38;;;;;;;-5.86;100.00;100025.22;4995812;28;20053;-69
2022/12/13 02:48:12;;;;;;;62.63;24.75;;;;;;;-5.84;100.00;100023.53;5009658;28;20066;-70
2022/12/13 02:50:39;;;;;;;59.42;24.38;;;;;;;-5.82;100.00;100024.38;4999586;28;20061;-71
2022/12/13 02:53:08;;;;;;;56.72;23.58;;;;;;;-5.86;100.00;100014.91;5000333;28;20517;-69
2022/12/13 02:55:38;;;;;;;57.13;24.13;;;;;;;-6.06;100.00;99986.31;5014518;28;20058;-69
2022/12/13 02:58:05;;;;;;;56.77;23.33;;;;;;;-5.95;100.00;100012.22;5010924;28;20053;-70
2022/12/13 03:00:50;;;;;;;55.90;22.95;;;;;;;-5.94;100.00;100008.78;5013474;28;20045;-70
2022/12/13 03:03:23;;;;;;;58.47;22.48;;;;;;;-6.02;100.00;99998.41;5000194;28;20118;-70
2022/12/13 03:06:31;;;;;;;59.30;23.40;;;;;;;-5.99;100.00;100005.31;5001240;28;20050;-72
2022/12/13 03:09:37;;;;;;;48.83;20.98;;;;;;;-5.98;100.00;100007.06;5001094;28;20137;-70
2022/12/13 03:15:24;;;;;;;51.22;21.27;;;;;;;-6.02;100.00;100007.00;5007190;28;20572;-69
2022/12/13 03:18:16;;;;;;;54.25;21.38;;;;;;;-6.06;100.00;100004.34;5005274;28;20058;-70
2022/12/13 03:20:51;;;;;;;50.55;20.10;;;;;;;-6.07;100.00;100006.06;5001181;28;20052;-70
2022/12/13 03:23:20;;;;;;;46.40;19.58;;;;;;;-6.16;100.00;99997.34;4993965;28;20041;-69
2022/12/13 03:25:52;;;;;;;55.70;21.33;;;;;;;-6.15;100.00;99999.97;5007345;28;20494;-70
2022/12/13 03:28:20;;;;;;;55.30;19.35;;;;;;;-6.19;100.00;99997.31;5008061;28;20505;-69
2022/12/13 03:30:46;;;;;;;51.28;19.52;;;;;;;-6.16;100.00;100008.53;5003898;28;20501;-69
2022/12/13 03:33:13;;;;;;;52.22;19.88;;;;;;;-6.21;100.00;99999.84;5000572;28;20094;-69
2022/12/13 03:35:41;;;;;;;51.03;20.88;;;;;;;-6.33;100.00;99994.53;5005570;28;20061;-69
2022/12/13 03:38:13;;;;;;;50.85;20.20;;;;;;;-6.30;100.00;99998.88;5008423;28;20077;-69
2022/12/13 03:40:57;;;;;;;54.47;19.75;;;;;;;-6.30;100.00;100004.03;5011102;28;20538;-69
2022/12/13 03:43:24;;;;;;;50.30;19.30;;;;;;;-6.37;100.00;99988.47;4998690;28;20065;-69
2022/12/13 03:45:53;;;;;;;59.60;22.00;;;;;;;-6.36;100.00;99994.50;5001933;28;20049;-69
2022/12/13 03:48:20;;;;;;;56.53;20.30;;;;;;;-6.41;100.00;99986.69;5013025;28;20062;-69
2022/12/13 03:50:50;;;;;;;57.72;21.85;;;;;;;-6.32;100.00;99991.13;5000925;28;20038;-69
2022/12/13 03:53:17;;;;;;;53.53;20.67;;;;;;;-6.28;100.00;99992.00;4996883;28;20554;-68
2022/12/13 03:55:59;;;;;;;51.08;20.13;;;;;;;-6.29;100.00;99980.84;5005008;28;20052;-69
2022/12/13 03:58:27;;;;;;;52.75;19.90;;;;;;;-6.29;100.00;99983.41;5010565;28;20061;-69
2022/12/13 04:01:08;;;;;;;61.97;21.08;;;;;;;-6.18;100.00;99989.59;5004090;28;20049;-70
2022/12/13 04:03:35;;;;;;;58.20;21.45;;;;;;;-6.18;100.00;99988.72;4998553;28;20048;-70
2022/12/13 04:06:03;;;;;;;50.80;19.73;;;;;;;-6.08;100.00;99991.44;5005077;28;20049;-70
2022/12/13 04:08:30;;;;;;;52.97;19.75;;;;;;;-6.04;100.00;99990.66;5010255;28;20052;-69
2022/12/13 04:10:56;;;;;;;51.25;19.75;;;;;;;-6.10;100.00;99977.66;5001416;28;20050;-70
2022/12/13 04:13:31;;;;;;;53.08;20.55;;;;;;;-6.08;100.00;99950.22;4996712;28;20042;-69
2022/12/13 04:15:59;;;;;;;50.88;20.27;;;;;;;-5.90;100.00;99980.50;5002156;28;20046;-69
2022/12/13 04:18:25;;;;;;;53.72;19.98;;;;;;;-5.97;100.00;99985.56;5004763;28;20042;-69
2022/12/13 04:20:52;;;;;;;56.55;20.48;;;;;;;-5.93;100.00;99979.59;5007749;28;20137;-69
2022/12/13 04:23:19;;;;;;;57.85;20.55;;;;;;;-5.89;100.00;99978.78;5001190;28;20153;-70
2022/12/13 04:25:45;;;;;;;52.53;20.55;;;;;;;-5.83;100.00;99976.28;5008360;28;20386;-68
2022/12/13 04:28:12;;;;;;;57.10;21.48;;;;;;;-5.85;100.00;99988.28;5012315;28;20042;-71
2022/12/13 04:30:47;;;;;;;54.55;20.48;;;;;;;-6.16;100.00;99959.56;5009552;28;20137;-71
2022/12/13 04:33:20;;;;;;;60.47;21.15;;;;;;;-5.96;100.00;99983.00;4993196;28;20116;-69
2022/12/13 04:35:47;;;;;;;60.53;21.92;;;;;;;-5.96;100.00;99985.56;5001388;28;20084;-70
2022/12/13 04:38:14;;;;;;;51.20;20.13;;;;;;;-6.04;100.00;99966.59;5004276;28;20046;-71
2022/12/13 04:40:41;;;;;;;61.42;21.25;;;;;;;-6.18;100.00;99942.34;5005276;28;20137;-70
2022/12/13 04:43:07;;;;;;;58.38;20.38;;;;;;;-6.05;100.00;99973.44;4999487;28;20057;-72
2022/12/13 04:45:34;;;;;;;57.45;21.42;;;;;;;-5.97;100.00;99983.84;5000191;28;20497;-71
2022/12/13 04:48:01;;;;;;;54.45;21.50;;;;;;;-6.01;100.00;99982.09;5006066;28;20050;-71
2022/12/13 04:50:27;;;;;;;53.00;19.30;;;;;;;-6.09;100.00;99978.53;5002592;28;20046;-70
2022/12/13 04:52:54;;;;;;;55.75;21.17;;;;;;;-6.16;100.00;99980.19;4996507;28;20042;-72
2022/12/13 04:55:21;;;;;;;60.85;21.80;;;;;;;-6.07;100.00;99998.34;5001640;28;20050;-68
2022/12/13 04:57:47;;;;;;;61.45;22.02;;;;;;;-5.96;100.00;99984.69;5007831;28;20045;-70
2022/12/13 05:00:14;;;;;;;62.05;21.70;;;;;;;-5.92;100.00;99992.50;5012936;28;20060;-71
2022/12/13 05:02:41;;;;;;;58.00;21.45;;;;;;;-5.95;100.00;99987.31;5005737;28;20062;-70
2022/12/13 05:05:09;;;;;;;59.72;21.10;;;;;;;-6.03;100.00;99978.63;4998332;28;20045;-70
2022/12/13 05:07:37;;;;;;;55.97;20.75;;;;;;;-6.05;100.00;99981.19;5005980;28;20788;-70
2022/12/13 05:10:09;;;;;;;57.25;21.95;;;;;;;-6.11;100.00;99975.06;5001344;28;20045;-70
2022/12/13 05:12:35;;;;;;;54.45;20.17;;;;;;;-6.17;100.00;99981.03;5001073;28;20486;-71
2022/12/13 05:15:02;;;;;;;57.40;20.60;;;;;;;-6.23;100.00;99975.78;5000686;28;20042;-71
2022/12/13 05:17:28;;;;;;;59.38;21.25;;;;;;;-6.39;100.00;99948.94;5006910;28;20069;-70
2022/12/13 05:19:55;;;;;;;64.53;22.25;;;;;;;-6.18;100.00;99987.03;5006905;28;20509;-69
2022/12/13 05:22:21;;;;;;;59.70;21.10;;;;;;;-6.20;100.00;99983.56;4999890;28;20050;-70
2022/12/13 05:24:48;;;;;;;58.70;20.75;;;;;;;-6.13;100.00;99993.09;5001911;28;20049;-69
2022/12/13 05:27:15;;;;;;;56.10;21.17;;;;;;;-6.14;100.00;99991.34;5000696;28;20129;-70
2022/12/13 05:29:54;;;;;;;56.53;20.90;;;;;;;-6.17;100.00;99991.34;5006079;28;20049;-72
2022/12/13 05:32:35;;;;;;;52.55;19.88;;;;;;;-6.20;100.00;99990.41;5004029;28;20487;-71
2022/12/13 05:35:14;;;;;;;;;;;;;;;-6.21;100.00;99988.69;4997742;28;20052;-70
2022/12/13 05:37:50;;;;;;;52.92;19.42;;;;;;;-6.21;100.00;99988.69;5007550;28;19975;-69
2022/12/13 05:40:19;;;;;;;;;;;;;;;-6.17;100.00;99987.88;5006445;28;20095;-69
2022/12/13 05:42:45;;;;;;;59.03;19.92;;;;;;;-6.35;100.00;99947.28;5002235;28;20392;-69
2022/12/13 05:45:12;;;;;;;59.38;21.42;;;;;;;-6.10;100.00;99977.66;5006395;28;20058;-69
2022/12/13 05:47:39;;;;;;;56.38;21.20;;;;;;;-6.16;100.00;99984.47;5005512;28;20057;-71
2022/12/13 05:50:06;;;;;;;58.42;22.00;;;;;;;-6.15;100.00;99973.31;5003428;28;20473;-70
2022/12/13 05:52:32;;;;;;;55.90;21.15;;;;;;;-6.16;100.00;99974.16;4997259;28;20053;-70
2022/12/13 05:54:59;;;;;;;51.17;19.80;;;;;;;-6.13;100.00;99969.88;5000129;28;20053;-71
2022/12/13 05:57:26;;;;;;;57.65;21.17;;;;;;;-6.13;100.00;99963.88;5003120;28;20084;-69
2022/12/13 05:59:53;;;;;;;49.67;20.65;;;;;;;-6.13;100.00;99969.88;5008086;28;20052;-72
2022/12/13 06:02:19;;;;;;;55.70;21.35;;;;;;;-6.14;100.00;99981.03;4999881;28;20514;-70
2022/12/13 06:04:47;;;;;;;56.60;20.08;;;;;;;-6.17;100.00;99970.72;4999255;28;20054;-71
2022/12/13 06:07:14;;;;;;;58.55;21.77;;;;;;;-6.19;100.00;99976.69;5001857;28;20058;-69
2022/12/13 06:09:41;;;;;;;53.22;20.75;;;;;;;-6.16;100.00;99977.59;5005766;28;20260;-69
2022/12/13 06:12:08;;;;;;;52.28;21.63;;;;;;;-6.20;100.00;99980.97;5000767;28;20668;-71
2022/12/13 06:14:55;;;;;;;53.03;19.70;;;;;;;-6.45;100.00;99938.53;4996439;28;20081;-70
2022/12/13 06:17:41;;;;;;;57.60;20.63;;;;;;;-6.21;100.00;99976.66;5004690;28;20062;-70
2022/12/13 06:20:09;;;;;;;51.75;19.92;;;;;;;-6.18;100.00;99989.59;5006147;28;20061;-70
2022/12/13 06:22:50;;;;;;;56.58;22.30;;;;;;;-6.17;100.00;99985.31;5005220;28;20548;-70
2022/12/13 06:25:17;;;;;;;52.13;21.40;;;;;;;-6.33;100.00;99960.19;5002264;28;20056;-69
2022/12/13 06:27:58;;;;;;;56.13;20.33;;;;;;;-6.22;100.00;99977.50;5005405;28;20078;-71
2022/12/13 06:30:29;;;;;;;53.60;21.10;;;;;;;-6.32;100.00;99970.50;5004603;28;20073;-73
2022/12/13 06:32:56;;;;;;;42.40;15.80;;;;;;;-6.38;100.00;99970.41;5008820;28;20450;-69
2022/12/13 06:35:23;;;;;;;51.95;21.00;;;;;;;-6.33;100.00;99979.09;4992697;28;20072;-69
2022/12/13 06:37:54;;;;;;;55.53;20.70;;;;;;;-6.47;100.00;99957.41;5007034;28;20137;-70
2022/12/13 06:40:30;;;;;;;55.28;20.70;;;;;;;-6.26;100.00;99988.63;5011860;28;20072;-70
2022/12/13 06:42:56;;;;;;;54.83;20.80;;;;;;;-6.24;100.00;99991.22;5010095;28;20077;-70
2022/12/13 06:45:23;;;;;;;54.20;20.42;;;;;;;-6.19;100.00;99987.00;4997436;28;20429;-69
2022/12/13 06:47:50;;;;;;;56.85;20.25;;;;;;;-6.32;100.00;99965.34;5004122;28;20081;-70
2022/12/13 06:50:16;;;;;;;50.05;20.95;;;;;;;-6.42;100.00;99953.16;5000803;28;20053;-70
2022/12/13 06:52:45;;;;;;;50.97;20.95;;;;;;;-6.23;100.00;99980.94;5003305;28;20045;-71
2022/12/13 06:55:12;;;;;;;53.95;20.45;;;;;;;-6.20;100.00;99988.72;5000103;28;20461;-69
2022/12/13 06:57:39;;;;;;;53.28;20.90;;;;;;;-6.13;100.00;99981.91;5011396;28;20050;-70
2022/12/13 07:00:07;;;;;;;49.30;19.05;;;;;;;-6.11;100.00;99980.22;5005160;28;20466;-70
2022/12/13 07:02:34;;;;;;;54.10;22.08;;;;;;;-6.16;100.00;99975.03;5013164;28;20152;-70
2022/12/13 07:05:01;;;;;;;54.35;21.35;;;;;;;-6.12;100.00;99978.50;4997121;28;20041;-70
2022/12/13 07:07:27;;;;;;;49.58;19.70;;;;;;;-6.13;100.00;99994.78;5009500;28;20080;-71
2022/12/13 07:09:54;;;;;;;47.75;19.30;;;;;;;-6.22;100.00;99976.66;5009065;28;20053;-71
2022/12/13 07:12:21;;;;;;;59.45;21.58;;;;;;;-6.20;100.00;99983.56;5003109;28;20513;-71
2022/12/13 07:14:47;;;;;;;49.90;19.52;;;;;;;-6.21;100.00;99979.25;4998748;28;20491;-70
2022/12/13 07:17:16;;;;;;;53.10;21.67;;;;;;;-6.35;100.00;99962.72;5007610;28;20429;-72
2022/12/13 07:20:06;;;;;;;52.20;20.58;;;;;;;-6.21;100.00;99974.09;5000735;28;20042;-70
2022/12/13 07:22:34;;;;;;;47.85;19.30;;;;;;;-6.13;100.00;99987.06;5004684;28;20050;-70
2022/12/13 07:25:07;;;;;;;53.60;21.15;;;;;;;-6.29;100.00;99967.94;4993192;28;20049;-70
2022/12/13 07:27:56;;;;;;;48.40;18.98;;;;;;;-6.18;100.00;99983.56;5007247;28;20050;-69
2022/12/13 07:30:29;;;;;;;52.15;19.90;;;;;;;-6.16;100.00;99993.06;5004159;28;20054;-70
2022/12/13 07:32:56;;;;;;;49.70;19.80;;;;;;;-6.20;100.00;99987.84;4997224;28;20050;-69
2022/12/13 07:35:22;;;;;;;52.83;19.98;;;;;;;-6.13;100.00;99994.78;4986945;28;20538;-70
2022/12/13 07:37:49;;;;;;;48.60;18.77;;;;;;;-6.13;100.00;99998.25;4996992;28;20046;-71
2022/12/13 07:40:15;;;;;;;48.28;19.50;;;;;;;-6.23;100.00;99972.34;4994324;28;20085;-70
2022/12/13 07:42:50;;;;;;;52.10;20.52;;;;;;;-6.10;100.00;99992.25;5003080;28;20054;-70
2022/12/13 07:45:17;;;;;;;44.33;17.90;;;;;;;-6.06;100.00;99994.91;4990649;28;20038;-70
2022/12/13 07:47:44;;;;;;;50.60;19.63;;;;;;;-6.20;100.00;99965.53;4993589;28;20054;-69
2022/12/13 07:50:11;;;;;;;50.45;19.92;;;;;;;-6.03;100.00;99994.09;5003748;28;20132;-69
2022/12/13 07:52:52;;;;;;;50.73;19.03;;;;;;;-6.09;100.00;99988.84;5001647;28;20135;-69
2022/12/13 07:55:20;;;;;;;48.15;19.45;;;;;;;-6.11;100.00;99990.53;4987354;28;20629;-71
2022/12/13 07:58:25;;;;;;;48.20;19.58;;;;;;;-6.11;100.00;99996.56;5007818;28;20049;-70
2022/12/13 08:00:51;;;;;;;50.55;19.88;;;;;;;-6.12;100.00;99989.66;4995483;28;20054;-72
2022/12/13 08:03:18;;;;;;;49.97;19.95;;;;;;;-6.11;100.00;99996.56;4993821;28;20046;-73
2022/12/13 08:06:03;;;;;;;48.60;18.73;;;;;;;-6.03;100.00;99988.94;4991351;28;20141;-71
2022/12/13 08:08:30;;;;;;;54.10;20.27;;;;;;;-5.86;100.00;100002.00;4990090;28;22119;-68
2022/12/13 08:11:16;;;;;;;48.35;20.20;;;;;;;-5.86;100.00;99997.72;4991276;28;20108;-69
2022/12/13 08:13:43;;;;;;;48.65;19.83;;;;;;;-6.00;100.00;99967.50;5000221;28;20107;-70
2022/12/13 08:16:11;;;;;;;50.85;19.60;;;;;;;-5.97;100.00;99973.53;4988783;28;20042;-69
2022/12/13 08:18:55;;;;;;;54.92;20.33;;;;;;;-5.78;100.00;100002.94;4991648;28;20054;-72
2022/12/13 08:21:31;;;;;;;49.35;20.00;;;;;;;-5.79;100.00;99999.50;4998800;28;20073;-70
2022/12/13 08:24:19;;;;;;;47.28;19.17;;;;;;;-5.83;100.00;99973.69;4998042;28;20050;-71
2022/12/13 08:26:45;;;;;;;50.42;18.90;;;;;;;-5.74;100.00;99986.69;4997319;28;20045;-70
2022/12/13 08:29:12;;;;;;;47.95;19.95;;;;;;;-5.81;100.00;99971.97;4994749;28;20061;-71
2022/12/13 08:31:49;;;;;;;51.08;19.08;;;;;;;-5.74;100.00;99990.13;5001007;28;20131;-71
2022/12/13 08:34:15;;;;;;;44.42;18.95;;;;;;;-5.68;100.00;99994.50;4991143;28;20054;-72
2022/12/13 08:36:42;;;;;;;50.33;19.65;;;;;;;-5.57;100.00;99995.47;4996972;28;20053;-70
2022/12/13 08:39:08;;;;;;;44.17;18.42;;;;;;;-5.57;100.00;99977.41;5019921;28;20048;-70
2022/12/13 08:41:35;;;;;;;46.80;18.30;;;;;;;-5.47;100.00;99991.28;4998086;28;20053;-69
2022/12/13 08:44:08;;;;;;;51.20;19.63;;;;;;;-5.47;100.00;99986.13;5000456;28;20453;-71
2022/12/13 08:46:34;;;;;;;49.70;19.38;;;;;;;-5.60;100.00;99954.16;4995789;28;20050;-69
2022/12/13 08:49:01;;;;;;;48.55;19.15;;;;;;;-5.38;100.00;99988.81;5000608;28;20417;-69
2022/12/13 08:51:28;;;;;;;51.53;19.60;;;;;;;-5.28;100.00;99992.34;5001070;28;20042;-70
2022/12/13 08:54:01;;;;;;;47.53;18.45;;;;;;;-5.24;100.00;99991.53;4997284;28;20057;-70
2022/12/13 08:56:36;;;;;;;46.55;18.60;;;;;;;-5.36;100.00;99951.84;4993747;28;20046;-70
2022/12/13 08:59:03;;;;;;;47.28;18.92;;;;;;;-5.10;100.00;99998.56;4999707;28;20133;-72
2022/12/13 09:01:30;;;;;;;45.58;18.58;;;;;;;-5.12;100.00;99983.91;4996520;28;20482;-69
2022/12/13 09:03:57;;;;;;;49.75;20.55;;;;;;;-5.16;100.00;99977.84;4998500;28;20039;-70
2022/12/13 09:06:23;;;;;;;49.45;18.13;;;;;;;-4.96;100.00;99993.50;4994266;28;20061;-69
2022/12/13 09:08:52;;;;;;;46.47;18.77;;;;;;;-4.89;100.00;99986.69;4997144;28;20081;-72
2022/12/13 09:11:20;;;;;;;48.10;18.75;;;;;;;-4.84;100.00;99998.78;4999392;28;20506;-70
2022/12/13 09:14:06;;;;;;;42.83;18.35;;;;;;;-4.84;100.00;100006.53;4992824;28;20049;-70
2022/12/13 09:16:40;;;;;;;44.83;18.38;;;;;;;-4.86;100.00;100005.63;4994262;28;20077;-69
2022/12/13 09:19:16;;;;;;;49.00;18.83;;;;;;;-4.81;100.00;100005.69;5002398;28;20083;-71
2022/12/13 09:21:52;;;;;;;45.50;18.88;;;;;;;-4.83;100.00;99995.34;4998144;28;20072;-70
2022/12/13 09:24:29;;;;;;;46.58;18.63;;;;;;;-4.73;100.00;99991.13;4997673;28;20075;-71
2022/12/13 09:27:04;;;;;;;47.38;18.50;;;;;;;-4.69;100.00;99993.72;4993635;28;20080;-70
2022/12/13 09:29:36;;;;;;;43.97;18.33;;;;;;;-4.71;100.00;99972.19;4988790;28;20046;-71
2022/12/13 09:32:04;;;;;;;47.42;20.00;;;;;;;-4.49;100.00;100000.78;4986930;28;20409;-71
2022/12/13 09:34:32;;;;;;;45.58;18.15;;;;;;;-4.42;100.00;100018.94;4993349;28;22417;-73
2022/12/13 09:36:59;;;;;;;43.88;18.42;;;;;;;-4.36;100.00;100026.72;4993605;28;20133;-73
2022/12/13 09:39:28;;;;;;;40.63;17.67;;;;;;;-4.39;100.00;100011.19;4995598;28;20038;-70
2022/12/13 09:41:58;;;;;;;43.92;18.65;;;;;;;-4.31;100.00;100029.34;4995311;28;20069;-69
2022/12/13 09:44:33;;;;;;;40.50;18.10;;;;;;;-4.35;100.00;100012.94;4980400;28;20074;-70
2022/12/13 09:47:21;;;;;;;43.85;18.67;;;;;;;-4.52;100.00;99993.00;4994778;28;20100;-71
2022/12/13 09:49:49;;;;;;;45.55;18.33;;;;;;;-4.35;100.00;100028.44;5000645;28;20861;-69
2022/12/13 09:52:22;;;;;;;43.72;19.40;;;;;;;-4.32;100.00;100022.44;5000543;28;20045;-71
2022/12/13 09:54:56;;;;;;;46.20;19.02;;;;;;;-4.26;100.00;100017.31;4993004;28;20680;-70
2022/12/13 09:57:27;;;;;;;51.95;18.80;;;;;;;-4.13;100.00;100021.72;4994861;28;20050;-69
2022/12/13 10:00:05;;;;;;;43.22;18.30;;;;;;;-4.01;100.00;100021.78;5016185;28;20049;-71
2022/12/13 10:02:42;;;;;;;45.00;18.50;;;;;;;-4.09;100.00;99984.66;5000283;28;20058;-70
2022/12/13 10:05:17;;;;;;;41.88;17.98;;;;;;;-3.76;100.00;100015.00;4990579;28;20050;-70
2022/12/13 10:07:51;;;;;;;40.85;18.88;;;;;;;-3.69;100.00;100009.00;4999354;28;20042;-70
2022/12/13 10:10:18;;;;;;;47.20;18.52;;;;;;;-3.62;100.00;100002.13;4994993;28;20577;-70
2022/12/13 10:13:18;;;;;;;45.58;19.65;;;;;;;-3.69;100.00;100002.97;4995912;28;20066;-70
2022/12/13 10:15:50;;;;;;;37.67;18.13;;;;;;;-3.79;100.00;99976.19;4989299;28;20048;-70
2022/12/13 10:18:34;;;;;;;40.78;18.80;;;;;;;-3.58;100.00;100002.13;4997543;28;20130;-70
2022/12/13 10:21:03;;;;;;;41.78;18.48;;;;;;;-3.47;100.00;99996.16;4997000;28;20042;-70
2022/12/13 10:23:30;;;;;;;40.90;18.48;;;;;;;-3.40;100.00;99992.69;4995562;28;20081;-71
2022/12/13 10:26:17;;;;;;;44.30;19.90;;;;;;;-3.25;100.00;99995.31;4986691;28;20046;-70
2022/12/13 10:29:01;;;;;;;48.08;19.60;;;;;;;-3.23;100.00;100003.97;5006773;28;20160;-71
2022/12/13 10:31:28;;;;;;;45.08;18.90;;;;;;;-3.21;100.00;99997.94;4990765;28;20054;-73
2022/12/13 10:33:57;;;;;;;47.75;19.75;;;;;;;-3.22;100.00;99985.84;4995074;28;20209;-70
2022/12/13 10:36:44;;;;;;;43.97;19.55;;;;;;;-3.13;100.00;99976.34;4992818;28;21169;-70
2022/12/13 10:39:17;;;;;;;45.30;19.45;;;;;;;-3.10;100.00;99976.34;4984051;28;20736;-70
2022/12/13 10:41:46;;;;;;;42.55;18.98;;;;;;;-3.02;100.00;99969.47;4993273;28;20061;-70
2022/12/13 10:44:21;;;;;;;41.17;18.05;;;;;;;-2.91;100.00;99967.75;4998835;28;20052;-72
2022/12/13 10:47:12;;;;;;;38.15;18.65;;;;;;;-2.89;100.00;99971.22;4991637;28;20141;-69
2022/12/13 10:49:51;;;;;;;42.90;18.10;;;;;;;-3.01;100.00;99948.75;4989307;28;20150;-70
2022/12/13 10:52:40;;;;;;;40.72;17.63;;;;;;;-2.91;100.00;99968.63;4995799;28;20046;-69
2022/12/13 10:55:32;;;;;;;38.45;18.73;;;;;;;-2.93;100.00;99954.78;5002784;28;20050;-68
2022/12/13 10:58:02;;;;;;;41.10;17.80;;;;;;;-2.92;100.00;99959.13;4999183;28;20487;-69
2022/12/13 11:00:30;;;;;;;43.72;18.35;;;;;;;-2.98;100.00;99947.88;4992115;28;20081;-70
2022/12/13 11:02:57;;;;;;;39.35;18.77;;;;;;;-3.14;100.00;99918.50;4997356;28;20049;-70
2022/12/13 11:05:35;;;;;;;40.67;18.15;;;;;;;-2.87;100.00;99956.53;4985582;28;20489;-70
2022/12/13 11:08:20;;;;;;;40.30;18.23;;;;;;;-2.86;100.00;99955.66;4992065;28;20054;-72
2022/12/13 11:11:02;;;;;;;37.60;17.17;;;;;;;-2.80;100.00;99952.19;4991653;28;20398;-69
2022/12/13 11:13:54;;;;;;;40.85;17.85;;;;;;;-2.75;100.00;99938.38;5000701;28;20043;-69
2022/12/13 11:16:34;;;;;;;41.75;18.85;;;;;;;-2.67;100.00;99923.69;4989148;28;20054;-73
2022/12/13 11:19:15;;;;;;;38.13;17.58;;;;;;;-2.58;100.00;99925.41;4996959;28;20137;-72
2022/12/13 11:21:47;;;;;;;41.03;18.40;;;;;;;-2.66;100.00;99909.00;4994755;28;20577;-69
2022/12/13 11:24:29;;;;;;;36.05;16.95;;;;;;;-2.52;100.00;99912.44;5005382;28;20057;-68
2022/12/13 11:26:59;;;;;;;37.75;17.52;;;;;;;-2.55;100.00;99908.13;4992294;28;20046;-69
2022/12/13 11:29:50;;;;;;;33.47;14.40;;;;;;;-2.48;100.00;99924.50;4996795;28;20777;-69
2022/12/13 11:32:55;;;;;;;42.47;18.33;;;;;;;-2.45;100.00;99923.66;5003606;28;20065;-70